sensor_id;sensor_type;location;lat;lon;timestamp;temperature;humidity
15959;DHT22;8078;47.822;9.402;2023-02-22T00:00:18;6.70;99.90
15959;DHT22;8078;47.822;9.402;2023-02-22T00:02:45;6.70;99.90
15959;DHT22;8078;47.822;9.402;2023-02-22T00:05:11;6.60;99.90
15959;DHT22;8078;47.822;9.402;2023-02-22T00:07:40;6.60;99.90
15959;DHT22;8078;47.822;9.402;2023-02-22T00:10:06;6.60;99.90
15959;DHT22;8078;47.822;9.402;2023-02-22T00:12:38;6.50;99.90
15959;DHT22;8078;47.822;9.402;2023-02-22T00:15:04;6.40;99.90
15959;DHT22;8078;47.822;9.402;2023-02-22T00:17:30;6.30;99.90
15959;DHT22;8078;47.822;9.402;2023-02-22T00:19:55;6.30;99.90
15959;DHT22;8078;47.822;9.402;2023-02-22T00:22:21;6.30;99.90
15959;DHT22;8078;47.822;9.402;2023-02-22T00:24:46;6.30;99.90
15959;DHT22;8078;47.822;9.402;2023-02-22T00:27:12;6.30;99.90
15959;DHT22;8078;47.822;9.402;2023-02-22T00:29:43;6.30;99.90
15959;DHT22;8078;47.822;9.402;2023-02-22T00:32:09;6.30;99.90
15959;DHT22;8078;47.822;9.402;2023-02-22T00:34:35;6.40;99.90
15959;DHT22;8078;47.822;9.402;2023-02-22T00:37:00;6.40;99.90
15959;DHT22;8078;47.822;9.402;2023-02-22T00:39:31;6.40;99.90
15959;DHT22;8078;47.822;9.402;2023-02-22T00:41:57;6.30;99.90
15959;DHT22;8078;47.822;9.402;2023-02-22T00:44:22;6.30;99.90
15959;DHT22;8078;47.822;9.402;2023-02-22T00:46:48;6.20;99.90
15959;DHT22;8078;47.822;9.402;2023-02-22T00:49:17;6.20;99.90
15959;DHT22;8078;47.822;9.402;2023-02-22T00:51:43;6.20;99.90
15959;DHT22;8078;47.822;9.402;2023-02-22T00:54:09;6.10;99.90
15959;DHT22;8078;47.822;9.402;2023-02-22T00:56:35;6.10;99.90
15959;DHT22;8078;47.822;9.402;2023-02-22T00:59:04;6.10;99.90
15959;DHT22;8078;47.822;9.402;2023-02-22T01:01:30;6.00;99.90
15959;DHT22;8078;47.822;9.402;2023-02-22T01:03:56;6.00;99.90
15959;DHT22;8078;47.822;9.402;2023-02-22T01:06:22;6.00;99.90
15959;DHT22;8078;47.822;9.402;2023-02-22T01:08:48;6.00;99.90
15959;DHT22;8078;47.822;9.402;2023-02-22T01:11:15;6.00;99.90
15959;DHT22;8078;47.822;9.402;2023-02-22T01:13:41;5.90;99.90
15959;DHT22;8078;47.822;9.402;2023-02-22T01:16:09;5.90;99.90
15959;DHT22;8078;47.822;9.402;2023-02-22T01:18:35;5.90;99.90
15959;DHT22;8078;47.822;9.402;2023-02-22T01:21:02;5.80;99.90
15959;DHT22;8078;47.822;9.402;2023-02-22T01:23:28;5.70;99.90
15959;DHT22;8078;47.822;9.402;2023-02-22T01:25:53;5.60;99.90
15959;DHT22;8078;47.822;9.402;2023-02-22T01:28:19;5.50;99.90
15959;DHT22;8078;47.822;9.402;2023-02-22T01:30:47;5.40;99.90
15959;DHT22;8078;47.822;9.402;2023-02-22T01:33:13;5.40;99.90
15959;DHT22;8078;47.822;9.402;2023-02-22T01:35:41;5.30;99.90
15959;DHT22;8078;47.822;9.402;2023-02-22T01:38:08;5.80;99.90
15959;DHT22;8078;47.822;9.402;2023-02-22T01:40:39;6.20;99.90
15959;DHT22;8078;47.822;9.402;2023-02-22T01:43:23;6.30;99.90
15959;DHT22;8078;47.822;9.402;2023-02-22T01:45:57;6.00;99.90
15959;DHT22;8078;47.822;9.402;2023-02-22T01:48:31;5.80;99.90
15959;DHT22;8078;47.822;9.402;2023-02-22T01:51:10;5.60;99.90
15959;DHT22;8078;47.822;9.402;2023-02-22T01:53:42;5.40;99.90
15959;DHT22;8078;47.822;9.402;2023-02-22T01:56:08;5.30;99.90
15959;DHT22;8078;47.822;9.402;2023-02-22T01:58:35;5.20;99.90
15959;DHT22;8078;47.822;9.402;2023-02-22T02:01:03;5.00;99.90
15959;DHT22;8078;47.822;9.402;2023-02-22T02:03:31;4.90;99.90
15959;DHT22;8078;47.822;9.402;2023-02-22T02:06:01;4.80;99.90
15959;DHT22;8078;47.822;9.402;2023-02-22T02:08:36;4.90;99.90
15959;DHT22;8078;47.822;9.402;2023-02-22T02:11:05;4.70;99.90
15959;DHT22;8078;47.822;9.402;2023-02-22T02:13:31;4.70;99.90
15959;DHT22;8078;47.822;9.402;2023-02-22T02:15:57;4.60;99.90
15959;DHT22;8078;47.822;9.402;2023-02-22T02:18:23;4.60;99.90
15959;DHT22;8078;47.822;9.402;2023-02-22T02:29:57;4.70;99.90
15959;DHT22;8078;47.822;9.402;2023-02-22T02:35:03;4.70;99.90
15959;DHT22;8078;47.822;9.402;2023-02-22T02:37:48;4.80;99.90
15959;DHT22;8078;47.822;9.402;2023-02-22T02:45:39;4.60;99.90
15959;DHT22;8078;47.822;9.402;2023-02-22T02:48:08;4.80;99.90
15959;DHT22;8078;47.822;9.402;2023-02-22T02:50:56;4.90;99.90
15959;DHT22;8078;47.822;9.402;2023-02-22T02:53:27;4.90;99.90
15959;DHT22;8078;47.822;9.402;2023-02-22T02:55:57;4.90;99.90
15959;DHT22;8078;47.822;9.402;2023-02-22T02:58:23;4.80;99.90
15959;DHT22;8078;47.822;9.402;2023-02-22T03:00:52;4.70;99.90
15959;DHT22;8078;47.822;9.402;2023-02-22T03:03:46;4.70;99.90
15959;DHT22;8078;47.822;9.402;2023-02-22T03:06:39;4.60;99.90
15959;DHT22;8078;47.822;9.402;2023-02-22T03:15:12;4.40;99.90
15959;DHT22;8078;47.822;9.402;2023-02-22T03:17:55;4.40;99.90
15959;DHT22;8078;47.822;9.402;2023-02-22T03:20:49;4.30;99.90
15959;DHT22;8078;47.822;9.402;2023-02-22T03:23:34;4.30;99.90
15959;DHT22;8078;47.822;9.402;2023-02-22T03:26:08;4.30;99.90
15959;DHT22;8078;47.822;9.402;2023-02-22T03:28:37;4.30;99.90
15959;DHT22;8078;47.822;9.402;2023-02-22T03:31:21;4.30;99.90
15959;DHT22;8078;47.822;9.402;2023-02-22T03:33:57;4.30;99.90
15959;DHT22;8078;47.822;9.402;2023-02-22T03:36:28;4.20;99.90
15959;DHT22;8078;47.822;9.402;2023-02-22T03:38:57;4.20;99.90
15959;DHT22;8078;47.822;9.402;2023-02-22T03:41:25;4.20;99.90
15959;DHT22;8078;47.822;9.402;2023-02-22T03:44:04;4.10;99.90
15959;DHT22;8078;47.822;9.402;2023-02-22T03:46:31;4.10;99.90
15959;DHT22;8078;47.822;9.402;2023-02-22T03:51:36;4.80;99.90
15959;DHT22;8078;47.822;9.402;2023-02-22T03:54:02;5.50;99.90
15959;DHT22;8078;47.822;9.402;2023-02-22T03:56:32;5.60;99.90
15959;DHT22;8078;47.822;9.402;2023-02-22T03:59:08;5.60;99.90
15959;DHT22;8078;47.822;9.402;2023-02-22T04:01:34;5.50;99.90
15959;DHT22;8078;47.822;9.402;2023-02-22T04:04:00;5.50;99.90
15959;DHT22;8078;47.822;9.402;2023-02-22T04:06:26;5.30;99.90
15959;DHT22;8078;47.822;9.402;2023-02-22T04:08:52;5.20;99.90
15959;DHT22;8078;47.822;9.402;2023-02-22T04:11:18;5.00;99.90
15959;DHT22;8078;47.822;9.402;2023-02-22T04:13:43;4.70;99.90
15959;DHT22;8078;47.822;9.402;2023-02-22T04:16:09;4.60;99.90
15959;DHT22;8078;47.822;9.402;2023-02-22T04:18:34;4.70;99.90
15959;DHT22;8078;47.822;9.402;2023-02-22T04:21:00;4.60;99.90
15959;DHT22;8078;47.822;9.402;2023-02-22T04:23:25;4.50;99.90
15959;DHT22;8078;47.822;9.402;2023-02-22T04:25:51;4.60;99.90
15959;DHT22;8078;47.822;9.402;2023-02-22T04:28:17;4.70;99.90
15959;DHT22;8078;47.822;9.402;2023-02-22T04:30:43;4.80;99.90
15959;DHT22;8078;47.822;9.402;2023-02-22T04:33:08;4.80;99.90
15959;DHT22;8078;47.822;9.402;2023-02-22T04:35:35;4.80;99.90
15959;DHT22;8078;47.822;9.402;2023-02-22T04:38:00;4.90;99.90
15959;DHT22;8078;47.822;9.402;2023-02-22T04:40:26;5.00;99.90
15959;DHT22;8078;47.822;9.402;2023-02-22T04:42:52;5.10;99.90
15959;DHT22;8078;47.822;9.402;2023-02-22T04:45:17;5.30;99.90
15959;DHT22;8078;47.822;9.402;2023-02-22T04:47:43;5.40;99.90
15959;DHT22;8078;47.822;9.402;2023-02-22T04:50:11;5.40;99.90
15959;DHT22;8078;47.822;9.402;2023-02-22T04:52:37;5.40;99.90
15959;DHT22;8078;47.822;9.402;2023-02-22T04:55:03;5.50;99.90
15959;DHT22;8078;47.822;9.402;2023-02-22T04:57:29;5.60;99.90
15959;DHT22;8078;47.822;9.402;2023-02-22T04:59:54;5.70;99.90
15959;DHT22;8078;47.822;9.402;2023-02-22T05:02:20;5.60;99.90
15959;DHT22;8078;47.822;9.402;2023-02-22T05:04:46;5.60;99.90
15959;DHT22;8078;47.822;9.402;2023-02-22T05:07:11;5.60;99.90
15959;DHT22;8078;47.822;9.402;2023-02-22T05:09:37;5.60;99.90
15959;DHT22;8078;47.822;9.402;2023-02-22T05:12:03;5.80;99.90
15959;DHT22;8078;47.822;9.402;2023-02-22T05:14:28;5.70;99.90
15959;DHT22;8078;47.822;9.402;2023-02-22T05:16:57;5.60;99.90
15959;DHT22;8078;47.822;9.402;2023-02-22T05:19:23;5.70;99.90
15959;DHT22;8078;47.822;9.402;2023-02-22T05:21:49;5.60;99.90
15959;DHT22;8078;47.822;9.402;2023-02-22T05:24:15;5.80;99.90
15959;DHT22;8078;47.822;9.402;2023-02-22T05:26:44;5.80;99.90
15959;DHT22;8078;47.822;9.402;2023-02-22T05:29:11;5.70;99.90
15959;DHT22;8078;47.822;9.402;2023-02-22T05:31:36;5.60;99.90
15959;DHT22;8078;47.822;9.402;2023-02-22T05:34:02;5.40;99.90
15959;DHT22;8078;47.822;9.402;2023-02-22T05:36:27;5.10;99.90
15959;DHT22;8078;47.822;9.402;2023-02-22T05:38:53;5.00;99.90
15959;DHT22;8078;47.822;9.402;2023-02-22T05:41:19;4.90;99.90
15959;DHT22;8078;47.822;9.402;2023-02-22T05:43:45;4.80;99.90
15959;DHT22;8078;47.822;9.402;2023-02-22T05:46:10;4.90;99.90
15959;DHT22;8078;47.822;9.402;2023-02-22T05:48:36;4.90;99.90
15959;DHT22;8078;47.822;9.402;2023-02-22T05:51:02;4.90;99.90
15959;DHT22;8078;47.822;9.402;2023-02-22T05:53:28;4.90;99.90
15959;DHT22;8078;47.822;9.402;2023-02-22T05:55:54;4.90;99.90
15959;DHT22;8078;47.822;9.402;2023-02-22T05:58:20;4.80;99.90
15959;DHT22;8078;47.822;9.402;2023-02-22T06:00:45;4.70;99.90
15959;DHT22;8078;47.822;9.402;2023-02-22T06:03:11;4.70;99.90
15959;DHT22;8078;47.822;9.402;2023-02-22T06:05:37;4.70;99.90
15959;DHT22;8078;47.822;9.402;2023-02-22T06:08:04;4.70;99.90
15959;DHT22;8078;47.822;9.402;2023-02-22T06:10:30;4.70;99.90
15959;DHT22;8078;47.822;9.402;2023-02-22T06:12:56;4.80;99.90
15959;DHT22;8078;47.822;9.402;2023-02-22T06:15:23;4.80;99.90
15959;DHT22;8078;47.822;9.402;2023-02-22T06:17:50;5.00;99.90
15959;DHT22;8078;47.822;9.402;2023-02-22T06:20:20;5.20;99.90
15959;DHT22;8078;47.822;9.402;2023-02-22T06:22:47;5.10;99.90
15959;DHT22;8078;47.822;9.402;2023-02-22T06:25:15;5.20;99.90
15959;DHT22;8078;47.822;9.402;2023-02-22T06:27:41;5.20;99.90
15959;DHT22;8078;47.822;9.402;2023-02-22T06:30:08;5.40;99.90
15959;DHT22;8078;47.822;9.402;2023-02-22T06:32:34;5.50;99.90
15959;DHT22;8078;47.822;9.402;2023-02-22T06:34:59;5.60;99.90
15959;DHT22;8078;47.822;9.402;2023-02-22T06:37:25;5.80;99.90
15959;DHT22;8078;47.822;9.402;2023-02-22T06:39:50;5.90;99.90
15959;DHT22;8078;47.822;9.402;2023-02-22T06:42:16;5.90;99.90
15959;DHT22;8078;47.822;9.402;2023-02-22T06:44:42;5.90;99.90
15959;DHT22;8078;47.822;9.402;2023-02-22T06:47:07;5.90;99.90
15959;DHT22;8078;47.822;9.402;2023-02-22T06:49:33;5.90;99.90
15959;DHT22;8078;47.822;9.402;2023-02-22T06:51:58;5.80;99.90
15959;DHT22;8078;47.822;9.402;2023-02-22T06:54:24;5.80;99.90
15959;DHT22;8078;47.822;9.402;2023-02-22T06:56:50;5.80;99.90
15959;DHT22;8078;47.822;9.402;2023-02-22T06:59:15;5.80;99.90
15959;DHT22;8078;47.822;9.402;2023-02-22T07:01:42;5.70;99.90
15959;DHT22;8078;47.822;9.402;2023-02-22T07:04:08;5.70;99.90
15959;DHT22;8078;47.822;9.402;2023-02-22T07:06:34;5.70;99.90
15959;DHT22;8078;47.822;9.402;2023-02-22T07:08:59;5.60;99.90
15959;DHT22;8078;47.822;9.402;2023-02-22T07:11:25;5.50;99.90
15959;DHT22;8078;47.822;9.402;2023-02-22T07:13:51;5.40;99.90
15959;DHT22;8078;47.822;9.402;2023-02-22T07:16:16;5.30;99.90
15959;DHT22;8078;47.822;9.402;2023-02-22T07:18:42;5.30;99.90
15959;DHT22;8078;47.822;9.402;2023-02-22T07:21:07;5.30;99.90
15959;DHT22;8078;47.822;9.402;2023-02-22T07:23:33;5.40;99.90
15959;DHT22;8078;47.822;9.402;2023-02-22T07:26:00;5.50;99.90
15959;DHT22;8078;47.822;9.402;2023-02-22T07:28:26;5.50;99.90
15959;DHT22;8078;47.822;9.402;2023-02-22T07:30:51;5.60;99.90
15959;DHT22;8078;47.822;9.402;2023-02-22T07:33:17;5.60;99.90
15959;DHT22;8078;47.822;9.402;2023-02-22T07:35:47;5.60;99.90
15959;DHT22;8078;47.822;9.402;2023-02-22T07:38:15;5.60;99.90
15959;DHT22;8078;47.822;9.402;2023-02-22T07:40:42;5.70;99.90
15959;DHT22;8078;47.822;9.402;2023-02-22T07:45:39;5.60;99.90
15959;DHT22;8078;47.822;9.402;2023-02-22T07:48:05;5.50;99.90
15959;DHT22;8078;47.822;9.402;2023-02-22T07:50:32;5.40;99.90
15959;DHT22;8078;47.822;9.402;2023-02-22T07:53:02;5.30;99.90
15959;DHT22;8078;47.822;9.402;2023-02-22T07:55:29;5.30;99.90
15959;DHT22;8078;47.822;9.402;2023-02-22T07:58:04;5.40;99.90
15959;DHT22;8078;47.822;9.402;2023-02-22T08:00:36;5.50;99.90
15959;DHT22;8078;47.822;9.402;2023-02-22T08:03:07;5.50;99.90
15959;DHT22;8078;47.822;9.402;2023-02-22T08:05:35;5.60;99.90
15959;DHT22;8078;47.822;9.402;2023-02-22T08:08:04;5.70;99.90
15959;DHT22;8078;47.822;9.402;2023-02-22T08:10:31;5.70;99.90
15959;DHT22;8078;47.822;9.402;2023-02-22T08:12:57;5.70;99.90
15959;DHT22;8078;47.822;9.402;2023-02-22T08:15:32;5.70;99.90
15959;DHT22;8078;47.822;9.402;2023-02-22T08:17:59;5.60;99.90
15959;DHT22;8078;47.822;9.402;2023-02-22T08:20:26;5.70;99.90
15959;DHT22;8078;47.822;9.402;2023-02-22T08:22:52;5.80;99.90
15959;DHT22;8078;47.822;9.402;2023-02-22T08:25:20;5.90;99.90
15959;DHT22;8078;47.822;9.402;2023-02-22T08:27:46;5.90;99.90
15959;DHT22;8078;47.822;9.402;2023-02-22T08:30:18;5.90;99.90
15959;DHT22;8078;47.822;9.402;2023-02-22T08:32:48;6.00;99.90
15959;DHT22;8078;47.822;9.402;2023-02-22T08:35:15;6.20;99.90
15959;DHT22;8078;47.822;9.402;2023-02-22T08:37:46;6.30;99.90
15959;DHT22;8078;47.822;9.402;2023-02-22T08:40:13;6.30;99.90
15959;DHT22;8078;47.822;9.402;2023-02-22T08:42:41;6.40;99.90
15959;DHT22;8078;47.822;9.402;2023-02-22T08:45:07;6.50;99.90
15959;DHT22;8078;47.822;9.402;2023-02-22T08:47:33;6.50;99.90
15959;DHT22;8078;47.822;9.402;2023-02-22T08:49:58;6.40;99.90
15959;DHT22;8078;47.822;9.402;2023-02-22T08:52:26;6.50;99.90
15959;DHT22;8078;47.822;9.402;2023-02-22T08:54:52;6.60;99.90
15959;DHT22;8078;47.822;9.402;2023-02-22T08:57:18;6.70;99.90
15959;DHT22;8078;47.822;9.402;2023-02-22T08:59:44;6.70;99.90
15959;DHT22;8078;47.822;9.402;2023-02-22T09:02:15;6.70;99.90
15959;DHT22;8078;47.822;9.402;2023-02-22T09:04:41;6.90;99.90
15959;DHT22;8078;47.822;9.402;2023-02-22T09:07:07;7.20;99.90
15959;DHT22;8078;47.822;9.402;2023-02-22T09:09:33;7.40;99.90
15959;DHT22;8078;47.822;9.402;2023-02-22T09:11:58;7.50;99.90
15959;DHT22;8078;47.822;9.402;2023-02-22T09:14:24;7.50;99.90
15959;DHT22;8078;47.822;9.402;2023-02-22T09:16:49;7.40;99.90
15959;DHT22;8078;47.822;9.402;2023-02-22T09:19:15;7.60;99.90
15959;DHT22;8078;47.822;9.402;2023-02-22T09:21:41;8.00;99.90
15959;DHT22;8078;47.822;9.402;2023-02-22T09:24:07;8.20;99.90
15959;DHT22;8078;47.822;9.402;2023-02-22T09:26:37;8.00;99.90
15959;DHT22;8078;47.822;9.402;2023-02-22T09:29:07;8.00;99.90
15959;DHT22;8078;47.822;9.402;2023-02-22T09:31:37;8.10;99.90
15959;DHT22;8078;47.822;9.402;2023-02-22T09:34:04;8.10;99.90
15959;DHT22;8078;47.822;9.402;2023-02-22T09:36:41;8.40;99.90
15959;DHT22;8078;47.822;9.402;2023-02-22T09:39:07;8.40;99.90
15959;DHT22;8078;47.822;9.402;2023-02-22T09:41:59;8.40;99.90
15959;DHT22;8078;47.822;9.402;2023-02-22T09:44:50;8.60;99.90
15959;DHT22;8078;47.822;9.402;2023-02-22T09:47:23;8.50;99.90
15959;DHT22;8078;47.822;9.402;2023-02-22T09:50:03;8.40;99.90
15959;DHT22;8078;47.822;9.402;2023-02-22T09:52:31;8.50;99.90
15959;DHT22;8078;47.822;9.402;2023-02-22T09:58:12;8.40;99.90
15959;DHT22;8078;47.822;9.402;2023-02-22T10:00:41;8.20;99.90
15959;DHT22;8078;47.822;9.402;2023-02-22T10:03:20;8.30;99.90
15959;DHT22;8078;47.822;9.402;2023-02-22T10:05:54;8.40;99.90
15959;DHT22;8078;47.822;9.402;2023-02-22T10:08:29;8.60;99.90
15959;DHT22;8078;47.822;9.402;2023-02-22T10:13:58;8.80;99.90
15959;DHT22;8078;47.822;9.402;2023-02-22T10:25:25;8.40;99.90
15959;DHT22;8078;47.822;9.402;2023-02-22T10:27:56;8.30;99.90
15959;DHT22;8078;47.822;9.402;2023-02-22T10:30:30;8.30;99.90
15959;DHT22;8078;47.822;9.402;2023-02-22T10:33:12;8.00;99.90
15959;DHT22;8078;47.822;9.402;2023-02-22T10:35:40;8.00;99.90
15959;DHT22;8078;47.822;9.402;2023-02-22T10:38:32;7.90;99.90
15959;DHT22;8078;47.822;9.402;2023-02-22T10:43:33;7.50;99.90
15959;DHT22;8078;47.822;9.402;2023-02-22T10:46:03;7.60;99.90
15959;DHT22;8078;47.822;9.402;2023-02-22T10:48:33;7.80;99.90
15959;DHT22;8078;47.822;9.402;2023-02-22T10:51:01;7.60;99.90
15959;DHT22;8078;47.822;9.402;2023-02-22T10:53:28;7.70;99.90
15959;DHT22;8078;47.822;9.402;2023-02-22T10:58:56;8.20;99.90
15959;DHT22;8078;47.822;9.402;2023-02-22T11:01:34;8.50;99.90
15959;DHT22;8078;47.822;9.402;2023-02-22T11:04:19;8.40;99.90
15959;DHT22;8078;47.822;9.402;2023-02-22T11:07:07;8.70;99.90
15959;DHT22;8078;47.822;9.402;2023-02-22T11:09:46;8.90;99.90
15959;DHT22;8078;47.822;9.402;2023-02-22T11:12:25;8.80;99.90
15959;DHT22;8078;47.822;9.402;2023-02-22T11:14:51;8.80;99.90
15959;DHT22;8078;47.822;9.402;2023-02-22T11:17:30;9.10;99.90
15959;DHT22;8078;47.822;9.402;2023-02-22T11:19:57;8.80;99.90
15959;DHT22;8078;47.822;9.402;2023-02-22T11:22:27;8.80;99.90
15959;DHT22;8078;47.822;9.402;2023-02-22T11:25:00;8.90;99.90
15959;DHT22;8078;47.822;9.402;2023-02-22T11:27:39;8.70;99.90
15959;DHT22;8078;47.822;9.402;2023-02-22T11:38:25;9.10;99.90
15959;DHT22;8078;47.822;9.402;2023-02-22T11:43:31;9.10;99.90
15959;DHT22;8078;47.822;9.402;2023-02-22T11:48:26;8.70;99.90
15959;DHT22;8078;47.822;9.402;2023-02-22T11:51:05;8.70;99.90
15959;DHT22;8078;47.822;9.402;2023-02-22T11:54:01;8.90;99.90
15959;DHT22;8078;47.822;9.402;2023-02-22T11:56:35;9.00;99.90
15959;DHT22;8078;47.822;9.402;2023-02-22T12:01:54;9.30;99.90
15959;DHT22;8078;47.822;9.402;2023-02-22T12:04:29;9.10;99.90
15959;DHT22;8078;47.822;9.402;2023-02-22T12:12:36;9.50;99.90
15959;DHT22;8078;47.822;9.402;2023-02-22T12:15:27;9.90;99.90
15959;DHT22;8078;47.822;9.402;2023-02-22T12:18:29;9.60;99.90
15959;DHT22;8078;47.822;9.402;2023-02-22T12:21:02;9.60;99.90
15959;DHT22;8078;47.822;9.402;2023-02-22T12:23:42;9.40;99.90
15959;DHT22;8078;47.822;9.402;2023-02-22T12:26:21;9.80;99.90
15959;DHT22;8078;47.822;9.402;2023-02-22T12:28:55;9.70;99.90
15959;DHT22;8078;47.822;9.402;2023-02-22T12:31:45;9.50;99.90
15959;DHT22;8078;47.822;9.402;2023-02-22T12:36:48;9.70;99.90
15959;DHT22;8078;47.822;9.402;2023-02-22T12:42:11;9.60;99.90
15959;DHT22;8078;47.822;9.402;2023-02-22T12:44:39;9.80;99.90
15959;DHT22;8078;47.822;9.402;2023-02-22T12:47:06;9.90;99.90
15959;DHT22;8078;47.822;9.402;2023-02-22T12:49:51;10.00;99.90
15959;DHT22;8078;47.822;9.402;2023-02-22T12:55:30;9.90;99.90
15959;DHT22;8078;47.822;9.402;2023-02-22T12:58:09;10.10;99.90
15959;DHT22;8078;47.822;9.402;2023-02-22T13:06:06;9.60;99.90
15959;DHT22;8078;47.822;9.402;2023-02-22T13:12:00;10.00;99.90
15959;DHT22;8078;47.822;9.402;2023-02-22T13:17:17;10.50;99.90
15959;DHT22;8078;47.822;9.402;2023-02-22T13:23:00;10.30;99.90
15959;DHT22;8078;47.822;9.402;2023-02-22T13:25:30;10.60;99.90
15959;DHT22;8078;47.822;9.402;2023-02-22T13:30:36;10.80;99.90
15959;DHT22;8078;47.822;9.402;2023-02-22T13:36:21;11.00;99.90
15959;DHT22;8078;47.822;9.402;2023-02-22T13:39:15;10.70;99.90
15959;DHT22;8078;47.822;9.402;2023-02-22T13:47:39;10.50;99.90
15959;DHT22;8078;47.822;9.402;2023-02-22T13:53:31;10.00;99.90
15959;DHT22;8078;47.822;9.402;2023-02-22T13:56:00;9.90;99.90
15959;DHT22;8078;47.822;9.402;2023-02-22T13:58:26;9.80;99.90
15959;DHT22;8078;47.822;9.402;2023-02-22T14:00:54;9.90;99.90
15959;DHT22;8078;47.822;9.402;2023-02-22T14:03:36;10.00;99.90
15959;DHT22;8078;47.822;9.402;2023-02-22T14:06:07;10.00;99.90
15959;DHT22;8078;47.822;9.402;2023-02-22T14:11:06;9.90;99.90
15959;DHT22;8078;47.822;9.402;2023-02-22T14:14:09;9.80;99.90
15959;DHT22;8078;47.822;9.402;2023-02-22T14:16:35;9.80;99.90
15959;DHT22;8078;47.822;9.402;2023-02-22T14:19:20;10.20;99.90
15959;DHT22;8078;47.822;9.402;2023-02-22T14:21:59;10.40;99.90
15959;DHT22;8078;47.822;9.402;2023-02-22T14:24:38;10.70;99.90
15959;DHT22;8078;47.822;9.402;2023-02-22T14:27:07;10.50;99.90
15959;DHT22;8078;47.822;9.402;2023-02-22T14:29:33;10.30;99.90
15959;DHT22;8078;47.822;9.402;2023-02-22T14:32:04;10.20;99.90
15959;DHT22;8078;47.822;9.402;2023-02-22T14:34:48;10.30;99.90
15959;DHT22;8078;47.822;9.402;2023-02-22T14:37:21;10.40;99.90
15959;DHT22;8078;47.822;9.402;2023-02-22T14:39:59;10.60;99.90
15959;DHT22;8078;47.822;9.402;2023-02-22T14:42:40;10.30;99.90
15959;DHT22;8078;47.822;9.402;2023-02-22T14:50:40;10.00;99.90
15959;DHT22;8078;47.822;9.402;2023-02-22T14:53:23;10.00;99.90
15959;DHT22;8078;47.822;9.402;2023-02-22T14:55:58;10.00;99.90
15959;DHT22;8078;47.822;9.402;2023-02-22T14:59:07;10.00;99.90
15959;DHT22;8078;47.822;9.402;2023-02-22T15:01:37;10.20;99.90
15959;DHT22;8078;47.822;9.402;2023-02-22T15:04:19;10.40;99.90
15959;DHT22;8078;47.822;9.402;2023-02-22T15:06:45;10.40;99.90
15959;DHT22;8078;47.822;9.402;2023-02-22T15:09:23;10.30;99.90
15959;DHT22;8078;47.822;9.402;2023-02-22T15:14:31;10.40;99.90
15959;DHT22;8078;47.822;9.402;2023-02-22T15:17:04;10.40;99.90
15959;DHT22;8078;47.822;9.402;2023-02-22T15:19:33;10.40;99.90
15959;DHT22;8078;47.822;9.402;2023-02-22T15:22:02;10.50;99.90
15959;DHT22;8078;47.822;9.402;2023-02-22T15:24:30;10.40;99.90
15959;DHT22;8078;47.822;9.402;2023-02-22T15:27:03;10.20;99.90
15959;DHT22;8078;47.822;9.402;2023-02-22T15:29:38;10.00;99.90
15959;DHT22;8078;47.822;9.402;2023-02-22T15:34:54;9.80;99.90
15959;DHT22;8078;47.822;9.402;2023-02-22T15:37:23;9.80;99.90
15959;DHT22;8078;47.822;9.402;2023-02-22T15:39:50;9.80;99.90
15959;DHT22;8078;47.822;9.402;2023-02-22T15:42:24;9.80;99.90
15959;DHT22;8078;47.822;9.402;2023-02-22T15:44:52;9.80;99.90
15959;DHT22;8078;47.822;9.402;2023-02-22T15:47:24;9.70;99.90
15959;DHT22;8078;47.822;9.402;2023-02-22T15:50:12;9.80;99.90
15959;DHT22;8078;47.822;9.402;2023-02-22T15:52:46;9.80;99.90
15959;DHT22;8078;47.822;9.402;2023-02-22T15:55:15;9.90;99.90
15959;DHT22;8078;47.822;9.402;2023-02-22T15:57:41;9.90;99.90
15959;DHT22;8078;47.822;9.402;2023-02-22T16:00:25;10.00;99.90
15959;DHT22;8078;47.822;9.402;2023-02-22T16:02:58;10.00;99.90
15959;DHT22;8078;47.822;9.402;2023-02-22T16:05:31;10.00;99.90
15959;DHT22;8078;47.822;9.402;2023-02-22T16:07:58;9.90;99.90
15959;DHT22;8078;47.822;9.402;2023-02-22T16:10:29;9.80;99.90
15959;DHT22;8078;47.822;9.402;2023-02-22T16:13:17;9.70;99.90
15959;DHT22;8078;47.822;9.402;2023-02-22T16:15:56;9.60;99.90
15959;DHT22;8078;47.822;9.402;2023-02-22T16:18:34;9.50;99.90
15959;DHT22;8078;47.822;9.402;2023-02-22T16:21:07;9.50;99.90
15959;DHT22;8078;47.822;9.402;2023-02-22T16:24:02;9.40;99.90
15959;DHT22;8078;47.822;9.402;2023-02-22T16:26:30;9.40;99.90
15959;DHT22;8078;47.822;9.402;2023-02-22T16:29:07;9.30;99.90
15959;DHT22;8078;47.822;9.402;2023-02-22T16:31:35;9.30;99.90
15959;DHT22;8078;47.822;9.402;2023-02-22T16:34:03;9.20;99.90
15959;DHT22;8078;47.822;9.402;2023-02-22T16:36:44;9.20;99.90
15959;DHT22;8078;47.822;9.402;2023-02-22T16:39:31;9.20;99.90
15959;DHT22;8078;47.822;9.402;2023-02-22T16:42:01;9.10;99.90
15959;DHT22;8078;47.822;9.402;2023-02-22T16:44:28;9.10;99.90
15959;DHT22;8078;47.822;9.402;2023-02-22T16:46:55;9.00;99.90
15959;DHT22;8078;47.822;9.402;2023-02-22T16:49:21;9.10;99.90
15959;DHT22;8078;47.822;9.402;2023-02-22T16:51:48;9.00;99.90
15959;DHT22;8078;47.822;9.402;2023-02-22T16:54:41;9.00;99.90
15959;DHT22;8078;47.822;9.402;2023-02-22T16:57:18;8.90;99.90
15959;DHT22;8078;47.822;9.402;2023-02-22T16:59:44;8.80;99.90
15959;DHT22;8078;47.822;9.402;2023-02-22T17:02:13;8.80;99.90
15959;DHT22;8078;47.822;9.402;2023-02-22T17:04:40;8.70;99.90
15959;DHT22;8078;47.822;9.402;2023-02-22T17:07:05;8.70;99.90
15959;DHT22;8078;47.822;9.402;2023-02-22T17:09:33;8.60;99.90
15959;DHT22;8078;47.822;9.402;2023-02-22T17:12:00;8.60;99.90
15959;DHT22;8078;47.822;9.402;2023-02-22T17:14:31;8.60;99.90
15959;DHT22;8078;47.822;9.402;2023-02-22T17:16:57;8.60;99.90
15959;DHT22;8078;47.822;9.402;2023-02-22T17:19:24;8.50;99.90
15959;DHT22;8078;47.822;9.402;2023-02-22T17:21:50;8.50;99.90
15959;DHT22;8078;47.822;9.402;2023-02-22T17:24:18;8.50;99.90
15959;DHT22;8078;47.822;9.402;2023-02-22T17:26:47;8.30;99.90
15959;DHT22;8078;47.822;9.402;2023-02-22T17:29:13;8.30;99.90
15959;DHT22;8078;47.822;9.402;2023-02-22T17:31:41;8.30;99.90
15959;DHT22;8078;47.822;9.402;2023-02-22T17:34:06;8.30;99.90
15959;DHT22;8078;47.822;9.402;2023-02-22T17:36:33;8.20;99.90
15959;DHT22;8078;47.822;9.402;2023-02-22T17:39:01;8.20;99.90
15959;DHT22;8078;47.822;9.402;2023-02-22T17:41:27;8.20;99.90
15959;DHT22;8078;47.822;9.402;2023-02-22T17:43:53;8.20;99.90
15959;DHT22;8078;47.822;9.402;2023-02-22T17:46:23;8.10;99.90
15959;DHT22;8078;47.822;9.402;2023-02-22T17:48:50;8.10;99.90
15959;DHT22;8078;47.822;9.402;2023-02-22T17:51:18;8.10;99.90
15959;DHT22;8078;47.822;9.402;2023-02-22T17:53:44;8.00;99.90
15959;DHT22;8078;47.822;9.402;2023-02-22T17:56:11;8.00;99.90
15959;DHT22;8078;47.822;9.402;2023-02-22T17:58:38;7.90;99.90
15959;DHT22;8078;47.822;9.402;2023-02-22T18:01:04;7.90;99.90
15959;DHT22;8078;47.822;9.402;2023-02-22T18:03:30;7.80;99.90
15959;DHT22;8078;47.822;9.402;2023-02-22T18:05:58;7.80;99.90
15959;DHT22;8078;47.822;9.402;2023-02-22T18:08:26;7.80;99.90
15959;DHT22;8078;47.822;9.402;2023-02-22T18:10:53;7.70;99.90
15959;DHT22;8078;47.822;9.402;2023-02-22T18:13:24;7.70;99.90
15959;DHT22;8078;47.822;9.402;2023-02-22T18:15:49;7.70;99.90
15959;DHT22;8078;47.822;9.402;2023-02-22T18:18:16;7.80;99.90
15959;DHT22;8078;47.822;9.402;2023-02-22T18:20:46;7.80;99.90